Time;durP1;ratioP1;P1;durP2;ratioP2;P2;SDS_P1;SDS_P2;PMS_P1;PMS_P2;Temp;Humidity;BMP_temperature;BMP_pressure;BME280_temperature;BME280_humidity;BME280_pressure;Samples;Min_cycle;Max_cycle;Signal;HPM_P1;HPM_P2
2023/09/23 00:01:32;;;;;;;;;;;24.70;99.90;;;;;;5036123;28;20334;-58
2023/09/23 00:03:58;;;;;;;;;;;24.70;99.90;;;;;;5035878;28;19905;-61
2023/09/23 00:06:24;;;;;;;;;;;24.70;99.90;;;;;;5018278;28;19916;-61
2023/09/23 00:08:50;;;;;;;;;;;24.70;99.90;;;;;;5035746;28;20366;-58
2023/09/23 00:11:16;;;;;;;;;;;24.70;99.90;;;;;;5018225;28;19905;-57
2023/09/23 00:13:42;;;;;;;;;;;24.60;99.90;;;;;;5035762;28;19905;-56
2023/09/23 00:16:08;;;;;;;;;;;24.70;99.90;;;;;;5035704;28;19911;-56
2023/09/23 00:18:34;;;;;;;;;;;24.60;99.90;;;;;;5017773;28;19913;-55
2023/09/23 00:20:59;;;;;;;;;;;24.60;99.90;;;;;;5028915;28;19909;-53
2023/09/23 00:23:25;;;;;;;;;;;24.60;99.90;;;;;;5032609;28;19927;-55
2023/09/23 00:25:51;;;;;;;;;;;24.60;99.90;;;;;;5032145;28;20266;-55
2023/09/23 00:28:17;;;;;;;;;;;24.60;99.90;;;;;;5032342;28;20458;-55
2023/09/23 00:30:45;;;;;;;;;;;24.60;99.90;;;;;;5031769;28;20418;-57
2023/09/23 00:33:14;;;;;;;;;;;24.60;99.90;;;;;;5033128;28;19920;-54
2023/09/23 00:35:40;;;;;;;;;;;24.60;99.90;;;;;;5014232;28;19909;-54
2023/09/23 00:38:07;;;;;;;;;;;24.60;99.90;;;;;;5032593;28;20302;-54
2023/09/23 00:40:32;;;;;;;;;;;24.60;99.90;;;;;;5032719;28;20314;-55
2023/09/23 00:43:12;;;;;;;;;;;24.60;99.90;;;;;;5027500;28;19955;-54
2023/09/23 00:45:44;;;;;;;;;;;24.50;99.90;;;;;;5033916;28;20158;-54
2023/09/23 00:48:10;;;;;;;;;;;24.50;99.90;;;;;;5033398;28;19917;-54
2023/09/23 00:50:35;;;;;;;;;;;24.50;99.90;;;;;;5032840;28;19916;-56
2023/09/23 00:53:04;;;;;;;;;;;24.50;99.90;;;;;;5033180;28;19909;-55
2023/09/23 00:55:31;;;;;;;;;;;24.50;99.90;;;;;;5033404;28;19928;-56
2023/09/23 00:58:00;;;;;;;;;;;24.60;99.90;;;;;;5015121;28;19913;-55
2023/09/23 01:00:27;;;;;;;;;;;24.70;99.90;;;;;;5051895;22;19911;-51
2023/09/23 01:02:56;;;;;;;;;;;24.70;99.90;;;;;;5022607;28;20411;-50
2023/09/23 01:05:22;;;;;;;;;;;24.70;99.90;;;;;;5034718;28;19905;-50
2023/09/23 01:07:48;;;;;;;;;;;24.80;99.90;;;;;;5035037;28;19905;-51
2023/09/23 01:10:16;;;;;;;;;;;24.80;99.90;;;;;;5034868;28;19958;-50
2023/09/23 01:12:44;;;;;;;;;;;24.80;99.90;;;;;;5034386;28;19913;-50
2023/09/23 01:15:10;;;;;;;;;;;24.80;99.90;;;;;;5034556;28;19948;-50
2023/09/23 01:17:36;;;;;;;;;;;24.80;99.90;;;;;;5016433;28;20019;-50
2023/09/23 01:20:02;;;;;;;;;;;24.90;99.90;;;;;;5034407;28;20402;-50
2023/09/23 01:22:29;;;;;;;;;;;24.90;99.90;;;;;;5034290;28;19912;-51
2023/09/23 01:24:58;;;;;;;;;;;24.90;99.90;;;;;;5034176;28;19909;-50
2023/09/23 01:27:24;;;;;;;;;;;24.90;99.90;;;;;;5034854;28;20347;-51
2023/09/23 01:29:53;;;;;;;;;;;25.00;99.90;;;;;;5034190;28;19999;-51
2023/09/23 01:32:37;;;;;;;;;;;25.00;99.90;;;;;;5034226;28;19984;-50
2023/09/23 01:35:03;;;;;;;;;;;25.00;99.90;;;;;;5034040;28;20359;-50
2023/09/23 01:37:29;;;;;;;;;;;25.00;99.90;;;;;;5034015;28;19959;-50
2023/09/23 01:39:55;;;;;;;;;;;25.00;99.90;;;;;;5034267;28;19971;-51
2023/09/23 01:42:20;;;;;;;;;;;25.00;99.90;;;;;;5034128;28;19948;-51
2023/09/23 01:44:46;;;;;;;;;;;25.00;99.90;;;;;;5034158;28;20036;-50
2023/09/23 01:47:12;;;;;;;;;;;25.00;99.90;;;;;;5033785;28;19905;-50
2023/09/23 01:49:38;;;;;;;;;;;25.00;99.90;;;;;;5032347;28;19912;-50
2023/09/23 01:52:04;;;;;;;;;;;25.00;99.90;;;;;;5022405;28;20283;-51
2023/09/23 01:54:29;;;;;;;;;;;25.00;99.90;;;;;;5019816;28;19905;-50
2023/09/23 01:56:55;;;;;;;;;;;25.00;99.90;;;;;;5021153;28;19909;-50
2023/09/23 01:59:21;;;;;;;;;;;25.00;99.90;;;;;;5023433;28;19912;-50
2023/09/23 02:01:46;;;;;;;;;;;25.00;99.90;;;;;;5021535;28;20012;-52
2023/09/23 02:04:12;;;;;;;;;;;25.00;99.90;;;;;;5032078;28;19911;-51
2023/09/23 02:06:42;;;;;;;;;;;25.00;99.90;;;;;;5015137;28;19908;-53
2023/09/23 02:09:11;;;;;;;;;;;25.00;99.90;;;;;;5033104;28;19952;-50
2023/09/23 02:11:37;;;;;;;;;;;24.90;99.90;;;;;;5024811;28;19944;-50
2023/09/23 02:14:04;;;;;;;;;;;24.90;99.90;;;;;;5031192;28;19952;-56
2023/09/23 02:16:30;;;;;;;;;;;24.90;99.90;;;;;;5033251;28;19909;-50
2023/09/23 02:18:55;;;;;;;;;;;24.90;99.90;;;;;;5009422;28;20287;-51
2023/09/23 02:21:21;;;;;;;;;;;24.90;99.90;;;;;;5031802;28;20389;-50
2023/09/23 02:23:46;;;;;;;;;;;24.90;99.90;;;;;;5032075;28;19940;-50
2023/09/23 02:26:12;;;;;;;;;;;24.90;99.90;;;;;;5025587;28;19963;-50
2023/09/23 02:28:38;;;;;;;;;;;24.90;99.90;;;;;;5028961;28;20363;-51
2023/09/23 02:31:04;;;;;;;;;;;24.90;99.90;;;;;;5031720;28;19943;-50
2023/09/23 02:33:30;;;;;;;;;;;24.80;99.90;;;;;;5032796;28;19904;-50
2023/09/23 02:36:00;;;;;;;;;;;24.80;99.90;;;;;;5020102;28;19933;-50
2023/09/23 02:38:26;;;;;;;;;;;24.80;99.90;;;;;;5016548;28;19913;-50
2023/09/23 02:40:52;;;;;;;;;;;24.80;99.90;;;;;;5031160;28;20357;-50
2023/09/23 02:43:19;;;;;;;;;;;24.70;99.90;;;;;;4996968;28;20330;-50
2023/09/23 02:45:47;;;;;;;;;;;24.70;99.90;;;;;;5030112;28;19909;-50
2023/09/23 02:48:13;;;;;;;;;;;24.70;99.90;;;;;;5025582;28;19984;-50
2023/09/23 02:50:40;;;;;;;;;;;24.70;99.90;;;;;;5031016;28;19916;-50
2023/09/23 02:53:07;;;;;;;;;;;24.70;99.90;;;;;;5028072;28;20318;-50
2023/09/23 02:55:32;;;;;;;;;;;24.70;99.90;;;;;;5011920;28;19905;-50
2023/09/23 02:57:58;;;;;;;;;;;24.70;99.90;;;;;;5031255;28;20514;-50
2023/09/23 03:00:29;;;;;;;;;;;24.70;99.90;;;;;;5032416;28;19909;-50
2023/09/23 03:02:56;;;;;;;;;;;24.70;99.90;;;;;;5020358;28;19960;-50
2023/09/23 03:05:28;;;;;;;;;;;24.70;99.90;;;;;;5014413;28;20328;-50
2023/09/23 03:07:57;;;;;;;;;;;24.60;99.90;;;;;;4995977;28;19917;-50
2023/09/23 03:10:31;;;;;;;;;;;24.60;99.90;;;;;;4995587;28;19917;-50
2023/09/23 03:13:07;;;;;;;;;;;24.60;99.90;;;;;;5015824;28;19953;-50
2023/09/23 03:15:37;;;;;;;;;;;24.60;99.90;;;;;;5026344;28;19905;-50
2023/09/23 03:18:05;;;;;;;;;;;24.60;99.90;;;;;;5031355;28;20278;-50
2023/09/23 03:20:30;;;;;;;;;;;24.60;99.90;;;;;;5020481;28;20005;-57
2023/09/23 03:22:56;;;;;;;;;;;24.60;99.90;;;;;;5025848;28;19980;-50
2023/09/23 03:25:22;;;;;;;;;;;24.50;99.90;;;;;;5030676;28;20004;-51
2023/09/23 03:27:50;;;;;;;;;;;24.50;99.90;;;;;;5031531;28;19988;-50
2023/09/23 03:30:16;;;;;;;;;;;24.50;99.90;;;;;;5024280;28;19952;-50
2023/09/23 03:32:43;;;;;;;;;;;24.50;99.90;;;;;;5008572;28;19914;-50
2023/09/23 03:35:14;;;;;;;;;;;24.50;99.90;;;;;;5018546;28;19905;-50
2023/09/23 03:37:39;;;;;;;;;;;24.50;99.90;;;;;;5015888;28;19924;-50
2023/09/23 03:40:07;;;;;;;;;;;24.50;99.90;;;;;;5021584;28;20282;-51
2023/09/23 03:42:33;;;;;;;;;;;24.50;99.90;;;;;;5012182;28;19910;-51
2023/09/23 03:44:59;;;;;;;;;;;24.50;99.90;;;;;;5026259;28;19992;-51
2023/09/23 03:47:24;;;;;;;;;;;24.50;99.90;;;;;;5024147;28;19913;-52
2023/09/23 03:49:51;;;;;;;;;;;24.50;99.90;;;;;;5014699;28;19932;-50
2023/09/23 03:52:17;;;;;;;;;;;24.50;99.90;;;;;;5029181;28;19913;-50
2023/09/23 03:54:42;;;;;;;;;;;24.50;99.90;;;;;;5031600;28;20012;-50
2023/09/23 03:57:08;;;;;;;;;;;24.50;99.90;;;;;;5022427;28;19964;-50
2023/09/23 03:59:36;;;;;;;;;;;24.50;99.90;;;;;;5024273;28;19958;-51
2023/09/23 04:02:01;;;;;;;;;;;24.50;99.90;;;;;;5030639;28;19916;-50
2023/09/23 04:04:27;;;;;;;;;;;24.50;99.90;;;;;;5028234;28;19920;-51
2023/09/23 04:06:52;;;;;;;;;;;24.50;99.90;;;;;;5023751;28;19924;-51
2023/09/23 04:09:18;;;;;;;;;;;24.50;99.90;;;;;;5030216;28;20043;-50
2023/09/23 04:11:45;;;;;;;;;;;24.50;99.90;;;;;;5029809;28;20387;-51
2023/09/23 04:14:11;;;;;;;;;;;24.50;99.90;;;;;;5029690;28;19936;-51
2023/09/23 04:16:37;;;;;;;;;;;24.50;99.90;;;;;;5013356;28;19909;-51
2023/09/23 04:19:03;;;;;;;;;;;24.50;99.90;;;;;;5026757;28;19913;-51
2023/09/23 04:21:30;;;;;;;;;;;24.50;99.90;;;;;;5013361;28;19912;-50
2023/09/23 04:23:57;;;;;;;;;;;24.50;99.90;;;;;;5023463;28;20015;-50
2023/09/23 04:26:24;;;;;;;;;;;24.50;99.90;;;;;;5028728;28;19996;-51
2023/09/23 04:28:52;;;;;;;;;;;24.50;99.90;;;;;;5012160;28;20000;-50
2023/09/23 04:31:18;;;;;;;;;;;24.50;99.90;;;;;;5013149;28;20339;-50
2023/09/23 04:33:44;;;;;;;;;;;24.50;99.90;;;;;;5018858;28;19963;-50
2023/09/23 04:36:11;;;;;;;;;;;24.50;99.90;;;;;;5023290;28;19905;-50
2023/09/23 04:38:36;;;;;;;;;;;24.50;99.90;;;;;;5033905;28;19913;-50
2023/09/23 04:41:02;;;;;;;;;;;24.50;99.90;;;;;;5033702;28;20314;-50
2023/09/23 04:43:30;;;;;;;;;;;24.40;99.90;;;;;;5028852;28;19912;-50
2023/09/23 04:45:56;;;;;;;;;;;24.40;99.90;;;;;;5034343;28;19936;-50
2023/09/23 04:48:24;;;;;;;;;;;24.40;99.90;;;;;;5033914;28;19959;-50
2023/09/23 04:50:52;;;;;;;;;;;24.40;99.90;;;;;;5029945;28;19990;-50
2023/09/23 04:53:18;;;;;;;;;;;24.40;99.90;;;;;;5023284;28;19905;-50
2023/09/23 04:55:45;;;;;;;;;;;24.40;99.90;;;;;;5033679;28;20676;-50
2023/09/23 04:58:12;;;;;;;;;;;24.30;99.90;;;;;;5033424;28;19917;-50
2023/09/23 05:00:38;;;;;;;;;;;24.30;99.90;;;;;;5026263;28;19948;-51
2023/09/23 05:03:05;;;;;;;;;;;24.30;99.90;;;;;;5025379;28;20277;-50
2023/09/23 05:05:31;;;;;;;;;;;24.30;99.90;;;;;;5033317;28;19912;-51
2023/09/23 05:07:59;;;;;;;;;;;24.30;99.90;;;;;;5028187;28;20276;-50
2023/09/23 05:10:26;;;;;;;;;;;24.20;99.90;;;;;;5025402;28;19906;-51
2023/09/23 05:12:56;;;;;;;;;;;24.30;99.90;;;;;;5033891;28;19948;-50
2023/09/23 05:15:24;;;;;;;;;;;24.20;99.90;;;;;;5033446;28;19955;-51
2023/09/23 05:17:50;;;;;;;;;;;24.30;99.90;;;;;;4997345;28;19917;-51
2023/09/23 05:20:18;;;;;;;;;;;24.20;99.90;;;;;;5013866;28;19913;-51
2023/09/23 05:22:44;;;;;;;;;;;24.20;99.90;;;;;;5031573;28;19951;-51
2023/09/23 05:25:11;;;;;;;;;;;24.20;99.90;;;;;;5033745;28;20328;-50
2023/09/23 05:27:40;;;;;;;;;;;24.20;99.90;;;;;;5015843;28;19967;-50
2023/09/23 05:30:07;;;;;;;;;;;24.20;99.90;;;;;;5002017;28;20022;-51
2023/09/23 05:32:33;;;;;;;;;;;24.20;99.90;;;;;;5032286;28;19905;-50
2023/09/23 05:35:00;;;;;;;;;;;24.20;99.90;;;;;;5032300;28;19912;-50
2023/09/23 05:37:26;;;;;;;;;;;24.10;99.90;;;;;;5004015;28;19924;-51
2023/09/23 05:39:53;;;;;;;;;;;24.10;99.90;;;;;;5028917;28;19912;-50
2023/09/23 05:42:23;;;;;;;;;;;24.10;99.90;;;;;;5033343;28;19908;-50
2023/09/23 05:44:49;;;;;;;;;;;24.10;99.90;;;;;;5022097;28;19906;-50
2023/09/23 05:47:14;;;;;;;;;;;24.10;99.90;;;;;;5027768;28;19917;-50
2023/09/23 05:49:42;;;;;;;;;;;24.10;99.90;;;;;;5032429;28;19909;-50
2023/09/23 05:52:08;;;;;;;;;;;24.10;99.90;;;;;;5033092;28;19905;-50
2023/09/23 05:54:33;;;;;;;;;;;24.10;99.90;;;;;;5026186;28;19950;-50
2023/09/23 05:56:59;;;;;;;;;;;24.20;99.90;;;;;;5019360;28;19909;-50
2023/09/23 05:59:25;;;;;;;;;;;24.20;99.90;;;;;;5032885;28;19987;-50
2023/09/23 06:01:50;;;;;;;;;;;24.20;99.90;;;;;;5028132;28;20003;-50
2023/09/23 06:04:16;;;;;;;;;;;24.20;99.90;;;;;;5019425;28;20471;-50
2023/09/23 06:06:41;;;;;;;;;;;24.20;99.90;;;;;;5025090;28;19905;-50
2023/09/23 06:09:07;;;;;;;;;;;24.20;99.90;;;;;;5032733;28;20030;-50
2023/09/23 06:11:33;;;;;;;;;;;24.20;99.90;;;;;;5010911;28;19909;-50
2023/09/23 06:13:59;;;;;;;;;;;24.30;99.90;;;;;;5026640;28;19912;-50
2023/09/23 06:16:24;;;;;;;;;;;24.30;99.90;;;;;;5031695;28;20351;-50
2023/09/23 06:18:50;;;;;;;;;;;24.30;99.90;;;;;;5032800;28;20391;-50
2023/09/23 06:21:16;;;;;;;;;;;24.30;99.90;;;;;;5028341;28;20368;-50
2023/09/23 06:23:41;;;;;;;;;;;24.30;99.90;;;;;;5030347;28;19905;-50
2023/09/23 06:26:10;;;;;;;;;;;24.30;99.90;;;;;;5031986;28;19905;-51
2023/09/23 06:28:36;;;;;;;;;;;24.30;99.90;;;;;;5031245;28;19905;-51
2023/09/23 06:31:02;;;;;;;;;;;24.30;99.90;;;;;;5027863;28;20358;-51
2023/09/23 06:33:28;;;;;;;;;;;24.30;99.90;;;;;;5017151;28;20339;-50
2023/09/23 06:35:53;;;;;;;;;;;24.30;99.90;;;;;;5033214;28;20355;-50
2023/09/23 06:38:19;;;;;;;;;;;24.30;99.90;;;;;;5027667;28;19971;-51
2023/09/23 06:40:45;;;;;;;;;;;24.40;99.90;;;;;;5015299;28;19913;-51
2023/09/23 06:43:12;;;;;;;;;;;24.40;99.90;;;;;;5027348;28;19909;-50
2023/09/23 06:45:37;;;;;;;;;;;24.40;99.90;;;;;;5031901;28;19905;-50
2023/09/23 06:48:03;;;;;;;;;;;24.40;99.90;;;;;;5027277;28;19916;-50
2023/09/23 06:50:29;;;;;;;;;;;24.40;99.90;;;;;;5012788;28;19912;-50
2023/09/23 06:52:55;;;;;;;;;;;24.40;99.90;;;;;;5032680;28;20378;-50
2023/09/23 06:55:20;;;;;;;;;;;24.50;99.90;;;;;;5013140;28;20001;-50
2023/09/23 06:57:46;;;;;;;;;;;24.50;99.90;;;;;;5003256;28;20020;-50
2023/09/23 07:00:12;;;;;;;;;;;24.50;99.90;;;;;;5027530;28;20411;-50
2023/09/23 07:02:37;;;;;;;;;;;24.50;99.90;;;;;;5032218;28;19939;-50
2023/09/23 07:05:05;;;;;;;;;;;24.50;99.90;;;;;;5027062;28;20383;-50
2023/09/23 07:07:31;;;;;;;;;;;24.60;99.90;;;;;;4998788;28;19955;-50
2023/09/23 07:09:56;;;;;;;;;;;24.60;99.90;;;;;;5004602;28;19916;-50
2023/09/23 07:12:22;;;;;;;;;;;24.60;99.90;;;;;;5032352;28;19909;-50
2023/09/23 07:14:49;;;;;;;;;;;24.70;99.90;;;;;;5023964;28;19909;-50
2023/09/23 07:17:17;;;;;;;;;;;24.70;99.90;;;;;;5018314;28;20340;-50
2023/09/23 07:19:45;;;;;;;;;;;24.70;99.90;;;;;;5032320;28;19909;-51
2023/09/23 07:22:12;;;;;;;;;;;24.80;99.90;;;;;;5031449;28;20395;-49
2023/09/23 07:24:38;;;;;;;;;;;24.80;99.90;;;;;;5030933;28;19909;-51
2023/09/23 07:27:04;;;;;;;;;;;24.80;99.90;;;;;;5034980;28;20356;-51
2023/09/23 07:29:31;;;;;;;;;;;24.90;99.90;;;;;;5025990;28;19937;-51
2023/09/23 07:31:56;;;;;;;;;;;24.90;99.90;;;;;;5026375;28;19996;-51
2023/09/23 07:34:22;;;;;;;;;;;25.00;99.90;;;;;;5030360;28;19944;-51
2023/09/23 07:36:48;;;;;;;;;;;25.00;99.90;;;;;;5029482;28;19905;-51
2023/09/23 07:39:15;;;;;;;;;;;25.00;99.90;;;;;;5031883;28;20405;-51
2023/09/23 07:41:40;;;;;;;;;;;25.10;99.90;;;;;;5026659;28;19959;-51
2023/09/23 07:44:06;;;;;;;;;;;25.10;99.90;;;;;;5011746;28;20343;-50
2023/09/23 07:46:32;;;;;;;;;;;25.20;99.90;;;;;;5026079;28;20374;-50
2023/09/23 07:48:58;;;;;;;;;;;25.20;99.90;;;;;;5031246;28;19948;-50
2023/09/23 07:51:23;;;;;;;;;;;25.20;99.90;;;;;;5024774;28;19990;-51
2023/09/23 07:53:52;;;;;;;;;;;25.30;99.90;;;;;;5021346;28;20351;-50
2023/09/23 07:56:18;;;;;;;;;;;25.30;99.90;;;;;;5031094;28;20390;-51
2023/09/23 07:58:43;;;;;;;;;;;25.40;99.90;;;;;;5028961;28;19913;-50
2023/09/23 08:01:09;;;;;;;;;;;25.40;99.90;;;;;;5003114;28;19921;-50
2023/09/23 08:03:35;;;;;;;;;;;25.40;99.90;;;;;;5008008;28;19909;-51
2023/09/23 08:06:01;;;;;;;;;;;25.50;99.90;;;;;;5031685;28;19916;-51
2023/09/23 08:08:26;;;;;;;;;;;25.50;99.90;;;;;;5028410;28;20002;-51
2023/09/23 08:10:53;;;;;;;;;;;25.50;99.90;;;;;;5026213;28;19909;-51
2023/09/23 08:13:19;;;;;;;;;;;25.60;99.90;;;;;;5025954;28;19905;-50
2023/09/23 08:15:45;;;;;;;;;;;25.70;99.90;;;;;;5035577;28;20267;-51
2023/09/23 08:18:12;;;;;;;;;;;25.70;99.90;;;;;;5031867;28;19920;-51
2023/09/23 08:20:38;;;;;;;;;;;25.70;99.90;;;;;;5024057;28;19910;-51
2023/09/23 08:23:05;;;;;;;;;;;25.80;99.90;;;;;;5017869;28;20286;-51
2023/09/23 08:25:31;;;;;;;;;;;25.80;99.90;;;;;;5017287;28;19901;-51
2023/09/23 08:27:57;;;;;;;;;;;25.80;99.90;;;;;;5023442;28;19905;-51
2023/09/23 08:30:23;;;;;;;;;;;25.80;99.90;;;;;;5024467;28;19916;-50
2023/09/23 08:32:49;;;;;;;;;;;25.90;99.90;;;;;;5034104;28;19912;-51
2023/09/23 08:35:15;;;;;;;;;;;25.90;99.90;;;;;;5030372;28;19996;-51
2023/09/23 08:37:40;;;;;;;;;;;25.90;99.90;;;;;;5007884;28;19917;-51
2023/09/23 08:40:09;;;;;;;;;;;26.00;99.90;;;;;;5032138;28;19959;-51
2023/09/23 08:42:34;;;;;;;;;;;26.00;99.90;;;;;;5034404;28;19905;-51
2023/09/23 08:45:00;;;;;;;;;;;26.10;99.90;;;;;;5015235;28;19971;-51
2023/09/23 08:47:26;;;;;;;;;;;26.10;99.90;;;;;;5032305;28;19905;-51
2023/09/23 08:49:52;;;;;;;;;;;26.10;99.90;;;;;;5034175;28;20405;-52
2023/09/23 08:52:18;;;;;;;;;;;26.20;99.90;;;;;;5034694;28;19909;-51
2023/09/23 08:54:49;;;;;;;;;;;26.20;99.90;;;;;;5022702;28;20387;-50
2023/09/23 08:57:16;;;;;;;;;;;26.20;99.90;;;;;;5029534;28;19905;-51
2023/09/23 08:59:42;;;;;;;;;;;26.30;99.90;;;;;;5034096;28;20024;-50
2023/09/23 09:02:08;;;;;;;;;;;26.30;99.90;;;;;;5030186;28;19925;-50
2023/09/23 09:04:34;;;;;;;;;;;26.40;99.90;;;;;;5018430;28;19916;-49
2023/09/23 09:07:03;;;;;;;;;;;26.50;99.90;;;;;;5020879;28;19913;-49
2023/09/23 09:09:29;;;;;;;;;;;26.50;99.90;;;;;;5033655;28;19993;-50
2023/09/23 09:11:54;;;;;;;;;;;26.50;99.90;;;;;;5030699;28;19991;-49
2023/09/23 09:14:22;;;;;;;;;;;26.60;99.90;;;;;;5018672;28;19909;-50
2023/09/23 09:16:48;;;;;;;;;;;26.60;99.90;;;;;;5030828;28;19999;-49
2023/09/23 09:19:14;;;;;;;;;;;26.70;99.90;;;;;;5034111;28;20007;-49
2023/09/23 09:21:41;;;;;;;;;;;26.70;99.90;;;;;;5033215;28;20394;-49
2023/09/23 09:24:07;;;;;;;;;;;26.80;99.90;;;;;;5039221;28;20311;-50
2023/09/23 09:26:35;;;;;;;;;;;26.80;99.90;;;;;;5031567;28;19909;-49
2023/09/23 09:29:01;;;;;;;;;;;26.90;99.90;;;;;;5023343;28;19916;-49
2023/09/23 09:31:38;;;;;;;;;;;26.90;99.90;;;;;;5021793;28;20360;-49
2023/09/23 09:34:05;;;;;;;;;;;27.00;99.90;;;;;;5032056;28;19913;-49
2023/09/23 09:36:35;;;;;;;;;;;27.00;99.90;;;;;;5033315;28;19920;-49
2023/09/23 09:39:01;;;;;;;;;;;27.10;99.90;;;;;;5011553;28;19921;-49
2023/09/23 09:41:33;;;;;;;;;;;27.10;99.90;;;;;;5025121;28;20256;-49
2023/09/23 09:44:00;;;;;;;;;;;27.20;99.90;;;;;;5032842;28;20125;-51
2023/09/23 09:46:29;;;;;;;;;;;27.20;99.90;;;;;;5033405;28;19956;-49
2023/09/23 09:48:55;;;;;;;;;;;27.30;99.90;;;;;;5028532;28;19952;-49
2023/09/23 09:51:22;;;;;;;;;;;27.30;99.90;;;;;;5030207;28;19951;-49
2023/09/23 09:53:48;;;;;;;;;;;27.40;99.90;;;;;;5032517;28;19909;-49
2023/09/23 09:56:16;;;;;;;;;;;27.40;99.90;;;;;;5031568;28;19909;-50
2023/09/23 09:58:42;;;;;;;;;;;27.50;99.90;;;;;;5020461;28;19963;-49
2023/09/23 10:01:12;;;;;;;;;;;27.60;99.90;;;;;;5014634;28;20437;-49
2023/09/23 10:03:42;;;;;;;;;;;27.60;99.90;;;;;;5032401;28;19913;-50
2023/09/23 10:06:08;;;;;;;;;;;27.70;99.90;;;;;;5015153;28;20527;-50
2023/09/23 10:08:35;;;;;;;;;;;27.70;99.90;;;;;;5026155;28;19905;-50
2023/09/23 10:11:04;;;;;;;;;;;27.70;99.90;;;;;;5033264;28;19999;-49
2023/09/23 10:13:31;;;;;;;;;;;27.80;99.90;;;;;;5031832;28;19917;-49
2023/09/23 10:16:11;;;;;;;;;;;27.90;99.90;;;;;;5025085;28;19953;-49
2023/09/23 10:18:39;;;;;;;;;;;27.90;99.90;;;;;;5027310;28;20004;-49
2023/09/23 10:21:05;;;;;;;;;;;28.00;99.90;;;;;;5032189;28;19967;-51
2023/09/23 10:23:35;;;;;;;;;;;28.10;99.90;;;;;;5032362;28;19913;-50
2023/09/23 10:26:14;;;;;;;;;;;28.20;99.90;;;;;;5032544;28;20000;-49
2023/09/23 10:28:41;;;;;;;;;;;28.20;99.90;;;;;;5031787;28;19912;-49
2023/09/23 10:31:10;;;;;;;;;;;28.30;99.90;;;;;;5030832;28;19905;-49
2023/09/23 10:33:36;;;;;;;;;;;28.40;99.90;;;;;;5026619;28;19909;-49
2023/09/23 10:36:03;;;;;;;;;;;28.50;99.90;;;;;;5027164;28;20321;-50
2023/09/23 10:38:34;;;;;;;;;;;28.50;99.90;;;;;;5013115;28;19975;-49
2023/09/23 10:41:01;;;;;;;;;;;28.60;99.90;;;;;;5038195;28;19978;-50
2023/09/23 10:43:27;;;;;;;;;;;28.70;99.90;;;;;;5034732;28;20087;-50
2023/09/23 10:45:57;;;;;;;;;;;28.70;99.90;;;;;;5030307;28;19905;-50
2023/09/23 10:48:23;;;;;;;;;;;28.80;99.90;;;;;;5030242;28;19905;-50
2023/09/23 10:50:50;;;;;;;;;;;28.90;99.90;;;;;;5028041;28;19916;-50
2023/09/23 10:53:15;;;;;;;;;;;28.90;99.90;;;;;;5023047;28;19905;-50
2023/09/23 10:55:41;;;;;;;;;;;29.00;99.90;;;;;;5028147;28;19968;-51
2023/09/23 10:58:09;;;;;;;;;;;29.00;99.90;;;;;;5031859;28;20279;-51
2023/09/23 11:00:36;;;;;;;;;;;29.10;99.90;;;;;;5023398;28;19909;-51
2023/09/23 11:03:09;;;;;;;;;;;29.20;99.90;;;;;;5019819;28;19968;-51
2023/09/23 11:05:39;;;;;;;;;;;29.20;99.90;;;;;;5028668;28;20004;-51
2023/09/23 11:08:05;;;;;;;;;;;29.20;99.90;;;;;;5031308;28;19905;-51
2023/09/23 11:10:31;;;;;;;;;;;29.30;99.90;;;;;;5021184;28;19909;-50
2023/09/23 11:12:57;;;;;;;;;;;29.30;99.90;;;;;;5020086;28;19905;-49
2023/09/23 11:15:23;;;;;;;;;;;29.40;99.90;;;;;;5032456;28;19905;-50
2023/09/23 11:17:52;;;;;;;;;;;29.40;99.90;;;;;;5025934;28;19950;-50
2023/09/23 11:20:26;;;;;;;;;;;29.40;99.90;;;;;;5018780;28;20398;-50
2023/09/23 11:22:56;;;;;;;;;;;29.40;99.90;;;;;;5031101;28;19908;-51
2023/09/23 11:25:22;;;;;;;;;;;29.50;99.90;;;;;;5031924;28;19927;-50
2023/09/23 11:27:48;;;;;;;;;;;29.50;99.90;;;;;;5008182;28;20012;-49
2023/09/23 11:30:14;;;;;;;;;;;29.50;99.90;;;;;;5017141;28;20355;-51
2023/09/23 11:32:41;;;;;;;;;;;29.60;99.90;;;;;;5030880;28;19905;-49
2023/09/23 11:35:07;;;;;;;;;;;29.60;99.90;;;;;;5030185;28;19945;-49
2023/09/23 11:37:33;;;;;;;;;;;29.70;99.90;;;;;;5026144;28;20014;-50
2023/09/23 11:39:58;;;;;;;;;;;29.70;99.90;;;;;;5027745;28;20288;-50
2023/09/23 11:42:24;;;;;;;;;;;29.70;99.90;;;;;;5013518;28;20003;-51
2023/09/23 11:44:50;;;;;;;;;;;29.80;99.90;;;;;;5025840;28;19924;-50
2023/09/23 11:47:17;;;;;;;;;;;29.80;99.90;;;;;;5014753;28;20364;-51
2023/09/23 11:49:44;;;;;;;;;;;29.80;99.90;;;;;;5023148;28;19905;-50
2023/09/23 11:52:12;;;;;;;;;;;29.80;99.90;;;;;;5031650;28;19905;-51
2023/09/23 11:54:39;;;;;;;;;;;29.90;99.90;;;;;;5022626;28;19920;-51
2023/09/23 11:57:05;;;;;;;;;;;29.90;99.90;;;;;;5020188;28;20323;-51
2023/09/23 11:59:30;;;;;;;;;;;29.90;99.90;;;;;;5031598;28;19999;-51
2023/09/23 12:01:56;;;;;;;;;;;30.00;99.90;;;;;;5031187;28;19917;-51
2023/09/23 12:04:22;;;;;;;;;;;30.00;99.90;;;;;;5020782;28;19913;-49
2023/09/23 12:06:47;;;;;;;;;;;30.00;99.90;;;;;;5027049;28;19905;-50
2023/09/23 12:09:13;;;;;;;;;;;30.10;99.90;;;;;;5030958;28;20004;-50
2023/09/23 12:11:39;;;;;;;;;;;30.10;99.90;;;;;;5027359;28;19992;-50
2023/09/23 12:14:05;;;;;;;;;;;30.20;99.90;;;;;;5012882;28;20002;-50
2023/09/23 12:16:31;;;;;;;;;;;30.30;99.90;;;;;;5020063;28;19935;-51
2023/09/23 12:18:56;;;;;;;;;;;30.30;99.90;;;;;;5031136;28;19913;-50
2023/09/23 12:21:22;;;;;;;;;;;30.30;99.90;;;;;;5025268;28;19910;-51
2023/09/23 12:23:47;;;;;;;;;;;30.40;99.90;;;;;;5015505;28;19905;-51
2023/09/23 12:26:15;;;;;;;;;;;30.40;99.90;;;;;;5030470;28;20374;-52
2023/09/23 12:28:41;;;;;;;;;;;30.50;99.90;;;;;;5031686;28;19911;-51
2023/09/23 12:31:06;;;;;;;;;;;30.50;99.90;;;;;;5019487;28;19921;-51
2023/09/23 12:33:32;;;;;;;;;;;30.50;99.90;;;;;;5019773;28;19928;-51
2023/09/23 12:35:57;;;;;;;;;;;30.60;99.90;;;;;;5031228;28;19927;-52
2023/09/23 12:38:23;;;;;;;;;;;30.50;99.90;;;;;;5029035;28;19913;-51
2023/09/23 12:40:49;;;;;;;;;;;30.60;99.90;;;;;;5020685;28;19916;-51
2023/09/23 12:43:14;;;;;;;;;;;30.50;99.90;;;;;;5024766;28;19909;-51
2023/09/23 12:45:41;;;;;;;;;;;30.50;99.90;;;;;;5031356;28;19905;-51
2023/09/23 12:48:07;;;;;;;;;;;30.50;99.90;;;;;;5024343;28;19917;-51
2023/09/23 12:50:33;;;;;;;;;;;30.50;99.90;;;;;;5025416;28;19983;-51
2023/09/23 12:52:59;;;;;;;;;;;30.60;99.90;;;;;;5021850;28;20359;-51
2023/09/23 12:55:24;;;;;;;;;;;30.60;99.90;;;;;;5031304;28;19906;-51
2023/09/23 12:57:52;;;;;;;;;;;30.60;99.90;;;;;;5025744;28;19920;-51
2023/09/23 13:00:19;;;;;;;;;;;30.60;99.90;;;;;;5019219;28;19916;-51
2023/09/23 13:02:44;;;;;;;;;;;30.60;99.90;;;;;;5034626;28;19921;-50
2023/09/23 13:05:10;;;;;;;;;;;30.60;99.90;;;;;;5034759;28;19905;-50
2023/09/23 13:07:36;;;;;;;;;;;30.60;99.90;;;;;;5034071;28;19955;-50
2023/09/23 13:10:03;;;;;;;;;;;30.60;99.90;;;;;;5033935;28;20282;-49
2023/09/23 13:12:28;;;;;;;;;;;30.60;99.90;;;;;;5034582;28;19905;-49
2023/09/23 13:14:54;;;;;;;;;;;30.60;99.90;;;;;;5034943;28;19909;-50
2023/09/23 13:17:20;;;;;;;;;;;30.70;99.90;;;;;;5034300;28;19905;-50
2023/09/23 13:19:45;;;;;;;;;;;30.70;99.90;;;;;;5034571;28;19959;-50
2023/09/23 13:22:11;;;;;;;;;;;30.70;99.90;;;;;;5034627;28;19912;-50
2023/09/23 13:24:37;;;;;;;;;;;30.70;99.90;;;;;;5034396;28;19964;-51
2023/09/23 13:27:04;;;;;;;;;;;30.70;99.90;;;;;;5034710;28;19905;-51
2023/09/23 13:29:31;;;;;;;;;;;30.70;99.90;;;;;;5034726;28;20708;-51
2023/09/23 13:31:56;;;;;;;;;;;30.70;99.90;;;;;;5034938;28;19905;-51
2023/09/23 13:34:22;;;;;;;;;;;30.80;99.90;;;;;;5034670;28;19960;-50
2023/09/23 13:36:48;;;;;;;;;;;30.80;99.90;;;;;;5034444;28;19909;-51
2023/09/23 13:39:15;;;;;;;;;;;30.80;99.90;;;;;;5034445;28;19960;-51
2023/09/23 13:41:40;;;;;;;;;;;30.80;99.90;;;;;;5034335;28;20003;-50
2023/09/23 13:44:07;;;;;;;;;;;30.80;99.90;;;;;;5034350;28;20328;-50
2023/09/23 13:46:36;;;;;;;;;;;30.80;99.90;;;;;;5034123;28;19905;-50
2023/09/23 13:49:03;;;;;;;;;;;30.80;99.90;;;;;;5016507;28;19912;-50
2023/09/23 13:51:29;;;;;;;;;;;30.80;99.90;;;;;;5034264;28;19905;-51
2023/09/23 13:53:55;;;;;;;;;;;30.70;99.90;;;;;;5034328;28;20291;-51
2023/09/23 13:56:21;;;;;;;;;;;30.70;99.90;;;;;;5034020;28;19905;-50
2023/09/23 13:58:47;;;;;;;;;;;30.80;99.90;;;;;;5033994;28;20078;-51
2023/09/23 14:01:12;;;;;;;;;;;30.80;99.90;;;;;;5033956;28;19913;-51
2023/09/23 14:03:38;;;;;;;;;;;30.70;99.90;;;;;;5033868;28;20418;-51
2023/09/23 14:06:04;;;;;;;;;;;30.80;99.90;;;;;;5034133;28;19905;-51
2023/09/23 14:08:33;;;;;;;;;;;30.70;99.90;;;;;;5033848;28;19912;-51
2023/09/23 14:10:59;;;;;;;;;;;30.70;99.90;;;;;;5033676;28;19912;-50
2023/09/23 14:13:25;;;;;;;;;;;30.60;99.90;;;;;;5033972;28;19905;-51